KAVX Airport Information

Runway Information
Runway 04 Length 3000 ft width 60 ft
Elevation 1602 ft Threshold 120 ft Heading 54
Runway 22 Length 3000 ft Width 60 ft
Elevation 1602 ft Threshold 149 ft Heading 234
Airport Frequencies
Type A/D Name SOCAL APP/ Frequency 127.4 MHZ
Type UNIC Name CTAF/UNICO Frequency 122.7 MHZ
Airport Navaids
Airport Weather Information & NOTAM
ADDS - METARS form results

(0148 UTC 19 January 2018)
 
METAR text: KAVX 190051Z AUTO 30004KT 10SM 19/05 A3006 RMK AO2 SLP161 T01890050 $
Conditions at: KAVX (AVALON , CA, US) observed 0051 UTC 19 January 2018
Temperature: 18.9°C (66°F)
Dewpoint: 5.0°C (41°F) [RH = 40%]
Pressure (altimeter): 30.06 inches Hg (1018.0 mb)
[Sea-level pressure: 1016.1 mb]
Winds: from the WNW (300 degrees) at 5 MPH (4 knots; 2.1 m/s)
Visibility: 10 or more miles (16+ km)
Ceiling: unknown
Clouds: missing
Weather:
SOME DATA ABOVE MAY BE INACCURATE!!!
"$" is an indication the sensor requires maintenance